Central Oregon RPC :: LAKEVIEW, OR D

liberation: 2020-09-26  07:30     latitude: 42.192405     longitude: -120.356890 59 birds
# LOFT PRING MILES ARRIVAL SPEED ToWin
1 RUETER FAMILY LOFT AU20-CORP-4663 180.003 2020-09-26 11:24:23.301 1351.626 00:00:00
2 RUETER FAMILY LOFT AU20-CORP-4646 180.003 2020-09-26 11:24:30.763 1350.909 00:00:07
3 RUETER FAMILY LOFT AU20-CORP-4676 180.003 2020-09-26 11:25:18.489 1346.342 00:00:55
4 RUETER FAMILY LOFT AU20-CORP-4550 180.003 2020-09-26 11:30:06.949 1319.385 00:05:44
5 RUETER FAMILY LOFT AU20-CORP-4684 180.003 2020-09-26 11:31:18.116 1312.900 00:06:55
6 ROCKY TOP AU20-CORP-4414 146.242 2020-09-26 10:48:04.052 1299.483 00:07:38
7 RUETER FAMILY LOFT AU20-CORP-4683 180.003 2020-09-26 11:36:47.982 1283.654 00:12:25
8 ROCKY TOP AU20-CORP-4433 146.242 2020-09-26 10:52:19.508 1272.138 00:11:54
9 ROCKY TOP AU20-CORP-4451 146.242 2020-09-26 10:52:20.973 1271.984 00:11:55
10 ROCKY TOP AU20-CORP-4450 146.242 2020-09-26 10:52:21.860 1271.891 00:11:56
11 RUETER FAMILY LOFT AU20-CORP-4651 180.003 2020-09-26 11:41:04.010 1261.837 00:16:41
12 RUETER FAMILY LOFT AU20-CORP-4682 180.003 2020-09-26 11:42:16.626 1255.783 00:17:53
13 STEELE LOFT AU20-CORP-5090 153.652 2020-09-26 11:06:41.986 1247.933 00:16:37
14 ROCKY TOP AU20-CORP-4413 146.242 2020-09-26 10:57:40.825 1239.334 00:17:15
15 ROCKY TOP AU20-CORP-4405 146.242 2020-09-26 10:57:44.729 1238.946 00:17:19
16 ROCKY TOP AU20-CORP-4471 146.242 2020-09-26 10:57:55.616 1237.865 00:17:30
17 TOPIGEONUSA AU20-CORP-4310 153.345 2020-09-26 11:09:38.314 1228.779 00:19:58
18 TOPIGEONUSA AU20-CORP-4861 153.345 2020-09-26 11:11:00.436 1221.170 00:21:20
19 STEELE LOFT AU20-CORP-5041 153.652 2020-09-26 11:14:32.441 1204.355 00:24:28
20 STEELE LOFT AU20-CORP-5080 153.652 2020-09-26 11:14:33.653 1204.247 00:24:29
21 TOPIGEONUSA AU20-CORP-4396 153.345 2020-09-26 11:14:48.111 1200.557 00:25:08
22 HENDRICKSON FAMILY LOFT AU20-ARPU-28119 150.133 2020-09-26 11:11:33.621 1192.603 00:26:04
23 TOPIGEONUSA AU20-CORP-4830 153.345 2020-09-26 11:16:20.750 1192.367 00:26:40
24 HENDRICKSON FAMILY LOFT AU20-CORP-5268 150.133 2020-09-26 11:13:03.548 1184.590 00:27:34
25 ROCKY TOP AU20-CORP-4435 146.242 2020-09-26 11:11:36.838 1161.413 00:31:11
26 TOPIGEONUSA AU20-CORP-4860 153.345 2020-09-26 11:25:21.573 1146.702 00:35:41
27 JACKSONS LOFT AU20-CORP-5470 123.948 2020-09-26 10:40:22.930 1145.842 00:28:59
28 JACKSONS LOFT AU20-CORP-5528 123.948 2020-09-26 10:40:26.225 1145.512 00:29:02
29 HENDRICKSON FAMILY LOFT AU20-CORP-5267 150.133 2020-09-26 11:21:00.408 1143.834 00:35:31
30 TOPIGEONUSA AU20-CORP-4363 153.345 2020-09-26 11:26:48.725 1139.669 00:37:08
31 JACKSONS LOFT AU20-CORP-4667 123.948 2020-09-26 10:41:33.164 1138.840 00:30:09
32 JACKSONS LOFT AU20-CORP-5552 123.948 2020-09-26 10:49:05.223 1095.741 00:37:41
33 JACKSONS LOFT AU20-CORP-5529 123.948 2020-09-26 10:49:08.010 1095.486 00:37:44
34 AMERICAN LOFT AU20-CORP-5510 150.054 2020-09-26 11:43:57.475 1039.917 00:58:34
35 AMERICAN LOFT AU20-CORP-5421 150.054 2020-09-26 11:46:29.788 1029.625 01:01:06
36 RUETER FAMILY LOFT AU20-CORP-4626 180.003 2020-09-26 12:40:06.372 1021.603 01:15:43
37 AMERICAN LOFT AU20-CORP-5497 150.054 2020-09-26 11:52:31.030 1006.011 01:07:08
38 JACKSONS LOFT AU20-CORP-5538 123.948 2020-09-26 11:08:29.161 998.452 00:57:05
39 STEELE LOFT AU20-JEDD-14785 153.652 2020-09-26 12:21:03.951 929.091 01:30:59
40 STEELE LOFT AU20-CORP-5016 153.652 2020-09-26 12:26:12.085 912.983 01:36:08
41 AMERICAN LOFT AU20-CORP-5449 150.054 2020-09-26 12:30:06.388 880.005 01:44:43
42 STEELE LOFT AU20-CORP-5017 153.652 2020-09-26 12:46:00.315 855.767 01:55:56
43 ROCKY TOP AU20-CORP-4455 146.242 2020-09-26 12:36:20.542 840.189 01:55:55
44 JACKSONS LOFT AU20-CORP-5534 123.948 2020-09-26 11:55:15.096 822.419 01:43:51
45 RUETER FAMILY LOFT AU20-CORP-4648 180.003 2020-09-26 16:15:16.755 603.118 04:50:53
46 RUETER FAMILY LOFT AU20-CORP-4635 180.003 2020-09-26 16:40:08.661 575.859 05:15:45
47 JACKSONS LOFT AU20-CORP-4647 123.948 2020-09-26 13:53:30.546 568.821 03:42:07
48 AMERICAN LOFT AU20-CORP-5513 150.054 2020-09-26 17:12:30.031 453.382 06:27:07
49 STEELE LOFT AU20-CORP-5032 153.652 2020-09-26 18:37:46.290 404.969 07:47:42
50 TIM GRAVES AU20-CORP-4739 144.732 2020-09-27 16:08:48.042 196.732 18:26:20
AMERICAN LOFT AU20-CORP-5579 0 0000-00-00 00:00:00.000 0.000 00:00:00
ROCKY TOP AU20-CORP-4446 0 0000-00-00 00:00:00.000 0.000 00:00:00
STEELE LOFT AU20-JEDD-14775 0 0000-00-00 00:00:00.000 0.000 00:00:00
STEELE LOFT AU20-JEDD-14782 0 0000-00-00 00:00:00.000 0.000 00:00:00
TOPIGEONUSA AU21-CORP-1001 0 0000-00-00 00:00:00.000 0.000 00:00:00
TOPIGEONUSA AU21-CORP-1002 0 0000-00-00 00:00:00.000 0.000 00:00:00
TOPIGEONUSA AU21-CORP-1003 0 0000-00-00 00:00:00.000 0.000 00:00:00
TOPIGEONUSA AU21-CORP-1004 0 0000-00-00 00:00:00.000 0.000 00:00:00
TOPIGEONUSA AU21-CORP-1005 0 0000-00-00 00:00:00.000 0.000 00:00:00